Adak Airport
PADK : now visible

Airfield :











YOU CAN JOIN US ON...

 
LOGIN :

Register | Disclaimer

   EN    FR    IT 

 









Legend :    VFR   Marginal VFR   IFR   Intensive IFR   Very Intensive IFR
Visi :
Ceiling :
>= 8 km
>= 3000ft
5 to 8 km
1000 to 3000 ft
1500m to 5 km
500 to 1000 ft
800 to 1500m
200 to 500 ft
< 800m
< 200 ft
Symbols :   Thunderstorms  Fog  Heavy snow  Heavy precipitations  Wind > 20 kt






- Airport Elevation : 18 ft
- IATA code : ADK


PADK - Adak

CURRENT METAR :
  • 270756Z AUTO 24028G37KT 10SM -RA BKN017 OVC024 09/08 A2939 RMK AO2 PK WND 22038/0746 RAB0659 SLP952 P0001 T00940078

EXPIRED METARs :
  • 270656Z AUTO 22027G36KT 10SM BKN021 BKN028 OVC043 11/08 A2940 RMK AO2 PK WND 22036/0651 RAB21E53 SLP956 P0001 T01060083
  • 270556Z AUTO 23022G33KT 10SM BKN019 BKN024 BKN050 11/08 A2944 RMK AO2 PK WND 24035/0530 RAB18E29 SLP970 P0000 60000 T01060083 10128 20094 58011
  • 270548Z AUTO 23023G34KT 10SM BKN019 BKN026 BKN050 11/08 A2945 RMK AO2 PK WND 24035/0530 RAB18E29 P0000

TAF N/A
PAZA FIR / North America



MET'MAP, your aeronautical weather chart ! - Copyright ORBIFLY December 2007 - Disclaimer

ORBIFLY MET'MAP TEAM :

Programming & Development : Alexandra Zaïnal
Concept & original design : Baudouin d'Aumeries
Assistance for programming : Marc-Olivier Méhu
Technical & hardware support : Manuel Goepfert

Contact : metmap@orbifly.com




SOURCES & CREDITS :

   NOAA       Earth
Advisory